Time;durP1;ratioP1;P1;durP2;ratioP2;P2;SDS_P1;SDS_P2;PMS_P1;PMS_P2;Temp;Humidity;BMP_temperature;BMP_pressure;BME280_temperature;BME280_humidity;BME280_pressure;Samples;Min_cycle;Max_cycle;Signal;HPM_P1;HPM_P2
2021/04/16 00:00:25;;;;;;;3.85;2.50;;;;;;;;;;4990877;28;20394;-75
2021/04/16 00:02:51;;;;;;;3.00;2.70;;;;;;;;;;4991860;28;20839;-76
2021/04/16 00:05:18;;;;;;;3.05;2.60;;;;;;;;;;4990915;28;20413;-75
2021/04/16 00:07:44;;;;;;;4.20;2.90;;;;;;;;;;4991668;28;20379;-75
2021/04/16 00:10:13;;;;;;;3.95;3.00;;;;;;;;;;4973919;28;20406;-78
2021/04/16 00:12:39;;;;;;;2.80;2.50;;;;;;;;;;4990856;28;20383;-75
2021/04/16 00:15:12;;;;;;;3.10;2.60;;;;;;;;;;4991050;28;20405;-75
2021/04/16 00:17:38;;;;;;;3.23;2.93;;;;;;;;;;4990202;28;20433;-75
2021/04/16 00:20:05;;;;;;;3.05;2.70;;;;;;;;;;4991142;28;20393;-76
2021/04/16 00:22:31;;;;;;;3.00;2.70;;;;;;;;;;4990160;28;20382;-76
2021/04/16 00:24:57;;;;;;;3.72;2.80;;;;;;;;;;4990125;28;20461;-76
2021/04/16 00:27:23;;;;;;;3.95;3.35;;;;;;;;;;4990158;28;20405;-76
2021/04/16 00:29:49;;;;;;;5.30;2.85;;;;;;;;;;4990741;28;20783;-76
2021/04/16 00:32:15;;;;;;;3.22;2.92;;;;;;;;;;4990415;28;20375;-76
2021/04/16 00:34:41;;;;;;;4.47;2.80;;;;;;;;;;4990258;28;20378;-76
2021/04/16 00:37:07;;;;;;;3.40;2.97;;;;;;;;;;4990487;28;20446;-76
2021/04/16 00:39:33;;;;;;;4.47;2.97;;;;;;;;;;4990098;28;20407;-76
2021/04/16 00:41:59;;;;;;;4.00;2.30;;;;;;;;;;4990645;28;20382;-76
2021/04/16 00:44:25;;;;;;;3.83;2.90;;;;;;;;;;4990201;28;20409;-75
2021/04/16 00:47:05;;;;;;;3.72;2.55;;;;;;;;;;4990561;28;20870;-76
2021/04/16 00:49:42;;;;;;;3.10;2.70;;;;;;;;;;4989998;28;20513;-76
2021/04/16 00:52:08;;;;;;;4.85;2.78;;;;;;;;;;4990775;28;20423;-76
2021/04/16 00:54:37;;;;;;;2.90;2.60;;;0.70;99.90;;;;;;4990005;28;20385;-76
2021/04/16 00:57:04;;;;;;;2.80;2.50;;;;;;;;;;4990407;28;20886;-76
2021/04/16 00:59:32;;;;;;;3.85;2.72;;;;;;;;;;4989894;28;20414;-76
2021/04/16 01:01:59;;;;;;;2.90;2.30;;;;;;;;;;4990938;28;20382;-76
2021/04/16 01:04:25;;;;;;;3.80;2.75;;;;;;;;;;4989583;28;20389;-76
2021/04/16 01:06:52;;;;;;;3.83;2.55;;;;;;;;;;4973099;28;20398;-76
2021/04/16 01:09:18;;;;;;;3.38;2.72;;;;;;;;;;4990411;28;20398;-76
2021/04/16 01:11:44;;;;;;;3.50;2.67;;;;;;;;;;4989939;28;20378;-77
2021/04/16 01:14:10;;;;;;;3.22;2.70;;;;;;;;;;4990634;28;20449;-77
2021/04/16 01:16:36;;;;;;;2.80;2.50;;;;;;;;;;4989582;28;20453;-76
2021/04/16 01:19:06;;;;;;;3.70;2.20;;;;;;;;;;4990523;28;20464;-76
2021/04/16 01:21:35;;;;;;;3.67;2.83;;;;;;;;;;4972169;28;20426;-76
2021/04/16 01:24:30;;;;;;;3.08;2.60;;;;;;;;;;4990451;28;20443;-76
2021/04/16 01:26:57;;;;;;;3.00;2.33;;;;;;;;;;4973746;28;20717;-76
2021/04/16 01:29:23;;;;;;;3.92;2.80;;;;;;;;;;4989385;28;20743;-76
2021/04/16 01:31:51;;;;;;;3.00;2.40;;;;;;;;;;4990169;28;20378;-76
2021/04/16 01:34:25;;;;;;;6.05;2.47;;;0.50;99.90;;;;;;4990465;28;20387;-76
2021/04/16 01:36:53;;;;;;;3.55;2.67;;;;;;;;;;4976052;28;20752;-76
2021/04/16 01:39:22;;;;;;;4.00;2.60;;;;;;;;;;4993616;28;20434;-76
2021/04/16 01:41:48;;;;;;;3.38;2.65;;;;;;;;;;4993894;28;20912;-76
2021/04/16 01:44:16;;;;;;;3.88;2.95;;;;;;;;;;4994043;28;20394;-76
2021/04/16 01:46:49;;;;;;;3.05;2.75;;;;;;;;;;4992979;28;20378;-76
2021/04/16 01:49:16;;;;;;;2.83;2.50;;;;;;;;;;4993548;28;20390;-76
2021/04/16 01:51:42;;;;;;;3.97;2.63;;;;;;;;;;4992891;28;20447;-76
2021/04/16 01:54:17;;;;;;;4.25;2.90;;;;;;;;;;4993811;28;20401;-76
2021/04/16 01:56:44;;;;;;;3.03;2.60;;;;;;;;;;4992898;28;20710;-76
2021/04/16 01:59:15;;;;;;;3.10;2.80;;;;;;;;;;4976402;28;20418;-76
2021/04/16 02:01:44;;;;;;;2.90;2.60;;;;;;;;;;4992309;28;21018;-76
2021/04/16 02:04:14;;;;;;;4.40;2.42;;;;;;;;;;4993537;28;20394;-76
2021/04/16 02:06:40;;;;;;;2.88;2.58;;;;;;;;;;4992701;28;20418;-76
2021/04/16 02:09:07;;;;;;;6.10;2.90;;;;;;;;;;4993463;28;20387;-76
2021/04/16 02:11:34;;;;;;;4.53;3.10;;;;;;;;;;4992561;28;20386;-76
2021/04/16 02:14:00;;;;;;;2.90;2.60;;;;;;;;;;4993405;28;20379;-76
2021/04/16 02:16:26;;;;;;;4.50;2.90;;;;;;;;;;4992433;28;20394;-76
2021/04/16 02:18:53;;;;;;;3.13;2.75;;;;;;;;;;4993227;28;20759;-76
2021/04/16 02:21:19;;;;;;;3.10;2.80;;;;;;;;;;4993268;28;20383;-76
2021/04/16 02:23:45;;;;;;;3.10;2.80;;;;;;;;;;4992352;28;20462;-76
2021/04/16 02:26:11;;;;;;;3.30;2.70;;;;;;;;;;4993277;28;20394;-76
2021/04/16 02:28:37;;;;;;;3.58;3.10;;;;;;;;;;4992036;28;20387;-76
2021/04/16 02:31:03;;;;;;;4.10;3.13;;;;;;;;;;4992842;28;20390;-76
2021/04/16 02:33:29;;;;;;;4.57;2.65;;;;;;;;;;4992144;28;20453;-76
2021/04/16 02:35:55;;;;;;;3.63;2.90;;;;;;;;;;4992835;28;20429;-76
2021/04/16 02:38:21;;;;;;;6.00;3.22;;;;;;;;;;4992593;28;20783;-76
2021/04/16 02:40:47;;;;;;;3.70;2.90;;;;;;;;;;4992526;28;20406;-76
2021/04/16 02:43:13;;;;;;;2.97;2.67;;;;;;;;;;4992687;28;20411;-76
2021/04/16 02:45:39;;;;;;;3.13;2.83;;;;;;;;;;4974567;28;20401;-76
2021/04/16 02:48:06;;;;;;;5.88;3.05;;;;;;;;;;4992064;28;20390;-76
2021/04/16 02:50:32;;;;;;;3.55;2.90;;;;;;;;;;4992005;28;20378;-76
2021/04/16 02:52:58;;;;;;;2.88;2.60;;;;;;;;;;4992801;28;20386;-77
2021/04/16 02:55:24;;;;;;;3.88;2.65;;;;;;;;;;4974901;28;20391;-76
2021/04/16 02:57:51;;;;;;;4.50;3.25;;;;;;;;;;4992263;28;20417;-76
2021/04/16 03:00:21;;;;;;;3.60;2.80;;;;;;;;;;4974996;28;20398;-76
2021/04/16 03:02:47;;;;;;;3.38;2.58;;;;;;;;;;4991490;28;20413;-76
2021/04/16 03:05:13;;;;;;;3.20;2.65;;;;;;;;;;4992843;28;20465;-76
2021/04/16 03:07:39;;;;;;;4.83;3.20;;;;;;;;;;4991353;28;20424;-76
2021/04/16 03:10:07;;;;;;;2.90;2.60;;;;;;;;;;4972946;28;20410;-76
2021/04/16 03:12:33;;;;;;;2.95;2.30;;;;;;;;;;4971409;28;20433;-76
2021/04/16 03:14:59;;;;;;;3.37;2.87;;;;;;;;;;4990297;28;20401;-77
2021/04/16 03:17:25;;;;;;;2.90;2.70;;;;;;;;;;4972049;28;20441;-76
2021/04/16 03:19:51;;;;;;;3.50;2.90;;;;;;;;;;4989060;28;20449;-76
2021/04/16 03:22:17;;;;;;;4.75;3.00;;;;;;;;;;4990636;28;20398;-76
2021/04/16 03:24:43;;;;;;;3.50;2.40;;;;;;;;;;4971843;28;20394;-76
2021/04/16 03:27:09;;;;;;;3.03;2.72;;;;;;;;;;4990100;28;20381;-76
2021/04/16 03:29:35;;;;;;;2.70;2.20;;;;;;;;;;4989350;28;20453;-76
2021/04/16 03:32:01;;;;;;;3.42;2.80;;;;;;;;;;4970570;28;20463;-76
2021/04/16 03:34:27;;;;;;;3.15;2.55;;;;;;;;;;4989230;28;20379;-76
2021/04/16 03:36:53;;;;;;;2.83;2.53;;;;;;;;;;4990084;28;20375;-76
2021/04/16 03:39:19;;;;;;;4.03;2.78;;;;;;;;;;4988908;28;20434;-76
2021/04/16 03:41:45;;;;;;;3.15;2.60;;;;;;;;;;4988711;28;20467;-74
2021/04/16 03:44:11;;;;;;;4.75;2.90;;;;;;;;;;4971722;28;20417;-75
2021/04/16 03:46:37;;;;;;;3.60;2.50;;;;;;;;;;4988972;28;20402;-75
2021/04/16 03:49:04;;;;;;;5.68;3.30;;;;;;;;;;4989593;28;20406;-75
2021/04/16 03:51:30;;;;;;;5.87;3.60;;;;;;;;;;4988028;28;20521;-75
2021/04/16 03:53:56;;;;;;;4.30;3.20;;;;;;;;;;4988760;28;20386;-75
2021/04/16 03:56:22;;;;;;;4.30;3.20;;;;;;;;;;4972116;28;20394;-75
2021/04/16 03:58:49;;;;;;;3.88;3.00;;;;;;;;;;4987766;28;20733;-75
2021/04/16 04:01:17;;;;;;;5.50;3.25;;;;;;;;;;4988943;28;20390;-75
2021/04/16 04:03:43;;;;;;;3.70;3.00;;;;;;;;;;4988163;28;20387;-75
2021/04/16 04:06:09;;;;;;;3.53;3.20;;;;;;;;;;4989925;28;20733;-75
2021/04/16 04:08:35;;;;;;;4.00;3.30;;;;;;;;;;4987483;28;20461;-76
2021/04/16 04:11:01;;;;;;;5.65;3.53;;;;;;;;;;4989405;28;20440;-75
2021/04/16 04:13:27;;;;;;;4.25;3.20;;;;;;;;;;4972012;28;20938;-75
2021/04/16 04:15:53;;;;;;;5.97;3.50;;;;;;;;;;4971946;28;20882;-76
2021/04/16 04:18:19;;;;;;;5.07;3.50;;;;;;;;;;4989587;28;20410;-76
2021/04/16 04:20:45;;;;;;;3.88;3.00;;;;;;;;;;4988589;28;20381;-76
2021/04/16 04:23:11;;;;;;;3.72;2.70;;;;;;;;;;4989600;28;20462;-76
2021/04/16 04:25:37;;;;;;;4.43;2.88;;;;;;;;;;4988532;28;20441;-76
2021/04/16 04:28:05;;;;;;;3.90;2.65;;;;;;;;;;4971939;28;20394;-76
2021/04/16 04:30:33;;;;;;;3.05;2.40;;;;;;;;;;4987940;28;20382;-75
2021/04/16 04:32:59;;;;;;;2.92;2.70;;;;;;;;;;4989355;28;20375;-75
2021/04/16 04:35:26;;;;;;;3.35;2.13;;;;;;;;;;4989689;28;20379;-75
2021/04/16 04:37:53;;;;;;;3.05;2.40;;;;;;;;;;4987741;28;20414;-77
2021/04/16 04:40:20;;;;;;;2.50;2.30;;;;;;;;;;4987886;28;20799;-76
2021/04/16 04:42:46;;;;;;;2.60;2.30;;;;;;;;;;4988324;28;20453;-77
2021/04/16 04:45:13;;;;;;;3.00;2.30;;;;;;;;;;4989229;28;20481;-76
2021/04/16 04:47:39;;;;;;;3.05;2.75;;;;;;;;;;4988307;28;20466;-77
2021/04/16 04:50:06;;;;;;;2.67;2.47;;;;;;;;;;4988891;28;20421;-77
2021/04/16 04:52:33;;;;;;;3.80;2.60;;;;;;;;;;4977113;28;20390;-77
2021/04/16 04:55:03;;;;;;;2.72;2.53;;;;;;;;;;4990713;28;20386;-77
2021/04/16 04:57:30;;;;;;;4.45;2.88;;;;;;;;;;4989205;28;20768;-77
2021/04/16 04:59:56;;;;;;;3.58;2.40;;;;;;;;;;4988256;28;20414;-77
2021/04/16 05:02:22;;;;;;;3.40;3.10;;;;;;;;;;4988836;28;20418;-77
2021/04/16 05:04:48;;;;;;;2.83;2.63;;;;;;;;;;4970681;28;20409;-77
2021/04/16 05:07:15;;;;;;;3.30;2.70;;;;;;;;;;4989135;28;20386;-77
2021/04/16 05:09:41;;;;;;;3.88;3.00;;;;;;;;;;4986448;28;20383;-78
2021/04/16 05:12:07;;;;;;;2.63;2.43;;;;;;;;;;4992360;28;20382;-77
2021/04/16 05:14:33;;;;;;;4.72;2.42;;;;;;;;;;4992888;28;20383;-77
2021/04/16 05:16:59;;;;;;;2.60;2.40;;;;;;;;;;4992951;28;20520;-78
2021/04/16 05:19:25;;;;;;;3.45;2.80;;;;;;;;;;4975304;28;20411;-77
2021/04/16 05:21:55;;;;;;;2.85;2.55;;;;;;;;;;4991349;28;20378;-75
2021/04/16 05:24:21;;;;;;;5.30;2.67;;;;;;;;;;4992726;28;20378;-76
2021/04/16 05:26:47;;;;;;;3.08;2.60;;;;;;;;;;4992161;28;20389;-75
2021/04/16 05:29:13;;;;;;;4.25;3.35;;;;;;;;;;4992531;28;20386;-76
2021/04/16 05:31:39;;;;;;;2.50;2.30;;;;;;;;;;4991596;28;20387;-76
2021/04/16 05:34:06;;;;;;;4.55;3.33;;;;;;;;;;4975483;28;20417;-76
2021/04/16 05:36:32;;;;;;;3.22;2.78;;;;;;;;;;4992185;28;20536;-76
2021/04/16 05:38:58;;;;;;;3.45;2.35;;;;;;;;;;4990270;28;20418;-75
2021/04/16 05:41:24;;;;;;;2.53;2.33;;;;;;;;;;4991703;28;20851;-76
2021/04/16 05:43:50;;;;;;;4.13;3.03;;;;;;;;;;4991460;28;20405;-76
2021/04/16 05:46:16;;;;;;;3.00;2.70;;;;;;;;;;4974655;28;20393;-75
2021/04/16 05:48:42;;;;;;;3.72;2.92;;;;;;;;;;4991364;28;20437;-75
2021/04/16 05:51:09;;;;;;;3.40;3.10;;;;;;;;;;4991819;28;20413;-75
2021/04/16 05:53:35;;;;;;;3.10;2.80;;;;;;;;;;4991596;28;20389;-76
2021/04/16 05:56:01;;;;;;;3.90;3.20;;;;;;;;;;4973443;28;20406;-76
2021/04/16 05:58:27;;;;;;;3.50;3.20;;;;;;;;;;4991999;28;20406;-75
2021/04/16 06:00:53;;;;;;;4.20;3.20;;;;;;;;;;4990467;28;20374;-75
2021/04/16 06:03:19;;;;;;;4.00;3.10;;;;;;;;;;4991792;28;20421;-77
2021/04/16 06:05:45;;;;;;;3.90;3.50;;;;;;;;;;4990549;28;20409;-76
2021/04/16 06:08:12;;;;;;;4.40;3.10;;;;;;;;;;4990256;28;20392;-76
2021/04/16 06:10:38;;;;;;;3.95;3.55;;;;;;;;;;4990254;28;20394;-76
2021/04/16 06:13:04;;;;;;;4.47;3.65;;;;;;;;;;4991818;28;20399;-76
2021/04/16 06:15:31;;;;;;;4.28;3.38;;;;;;;;;;4992015;28;20550;-76
2021/04/16 06:17:57;;;;;;;3.40;3.10;;;;;;;;;;4985511;28;20497;-73
2021/04/16 06:20:26;;;;;;;3.30;3.00;;;;;;;;;;4991367;28;20482;-74
2021/04/16 06:22:54;;;;;;;5.03;3.30;;;2.60;99.90;;;;;;4990718;28;20462;-73
2021/04/16 06:25:26;;;;;;;3.60;3.05;;;2.80;99.90;;;;;;4991259;28;20751;-74
2021/04/16 06:27:52;;;;;;;6.10;3.45;;;;;;;;;;4990382;28;20390;-74
2021/04/16 06:30:22;;;;;;;3.65;3.30;;;;;;;;;;4990647;28;20872;-73
2021/04/16 06:32:58;;;;;;;3.50;3.20;;;;;;;;;;4988821;28;20725;-77
2021/04/16 06:35:24;;;;;;;5.00;3.38;;;;;;;;;;5004596;28;20443;-75
2021/04/16 06:37:50;;;;;;;4.20;3.55;;;;;;;;;;4988515;28;20414;-75
2021/04/16 06:40:16;;;;;;;4.30;3.00;;;;;;;;;;4984271;28;20465;-75
2021/04/16 06:42:43;;;;;;;4.28;3.05;;;;;;;;;;4981855;28;20797;-75
2021/04/16 06:45:13;;;;;;;4.20;2.93;;;;;;;;;;4965007;28;20387;-74
2021/04/16 06:47:44;;;;;;;3.40;3.10;;;4.10;99.90;;;;;;4958359;28;20799;-75
2021/04/16 06:50:13;;;;;;;3.30;3.00;;;;;;;;;;4981292;28;20430;-75
2021/04/16 06:52:47;;;;;;;3.67;3.20;;;;;;;;;;4980741;28;20460;-75
2021/04/16 06:55:13;;;;;;;3.83;3.50;;;4.30;99.90;;;;;;4980818;28;20432;-75
2021/04/16 06:57:50;;;;;;;3.70;3.40;;;;;;;;;;4963128;28;20422;-76
2021/04/16 07:00:25;;;;;;;3.38;2.67;;;;;;;;;;4981425;28;20403;-75
2021/04/16 07:02:55;;;;;;;3.00;2.60;;;;;;;;;;4981048;28;20383;-75
2021/04/16 07:05:23;;;;;;;3.40;3.10;;;;;;;;;;4980500;28;21259;-75
2021/04/16 07:07:50;;;;;;;3.20;2.90;;;;;;;;;;4979912;28;20853;-75
2021/04/16 07:10:18;;;;;;;3.80;2.97;;;;;;;;;;4980675;28;20510;-74
2021/04/16 07:12:45;;;;;;;3.15;2.85;;;;;;;;;;4980371;28;20386;-74
2021/04/16 07:15:14;;;;;;;2.90;2.60;;;;;;;;;;4980655;28;20470;-74
2021/04/16 07:17:41;;;;;;;3.10;2.80;;;;;;;;;;4978820;28;20465;-75
2021/04/16 07:20:09;;;;;;;3.60;3.17;;;;;;;;;;4978705;28;20387;-74
2021/04/16 07:22:40;;;;;;;3.20;2.83;;;;;;;;;;4977983;28;20509;-74
2021/04/16 07:25:16;;;;;;;4.35;3.05;;;;;;;;;;4982921;28;20472;-74
2021/04/16 07:27:45;;;;;;;5.07;3.85;;;;;;;;;;4981576;28;20427;-75
2021/04/16 07:30:31;;;;;;;3.30;3.00;;;;;;;;;;4979357;28;20444;-74
2021/04/16 07:32:59;;;;;;;4.50;3.15;;;;;;;;;;4978581;28;20401;-74
2021/04/16 07:35:28;;;;;;;3.00;2.70;;;;;;;;;;4981882;28;20391;-73
2021/04/16 07:38:16;;;;;;;3.28;2.97;;;5.10;99.90;;;;;;4981606;28;20469;-75
2021/04/16 07:40:43;;;;;;;3.22;2.80;;;;;;;;;;4980165;28;20429;-74
2021/04/16 07:43:14;;;;;;;3.90;3.25;;;;;;;;;;4969386;28;20409;-77
2021/04/16 07:45:41;;;;;;;4.00;2.40;;;;;;;;;;4995898;28;20403;-76
2021/04/16 07:48:34;;;;;;;2.67;2.28;;;;;;;;;;4982587;28;20378;-77
2021/04/16 07:51:02;;;;;;;3.40;2.70;;;;;;;;;;4976961;28;20561;-78
2021/04/16 07:53:33;;;;;;;3.10;2.38;;;;;;;;;;4962728;28;20898;-78
2021/04/16 07:56:26;;;;;;;2.90;2.30;;;;;;;;;;4980252;28;20397;-77
2021/04/16 07:59:01;;;;;;;3.00;2.70;;;;;;;;;;4976323;28;20418;-77
2021/04/16 08:01:28;;;;;;;2.05;1.85;;;;;;;;;;4979944;28;20423;-76
2021/04/16 08:04:04;;;;;;;2.50;2.10;;;6.20;96.80;;;;;;4980210;28;20448;-78
2021/04/16 08:06:39;;;;;;;3.30;2.10;;;;;;;;;;4979814;28;20383;-74
2021/04/16 08:09:09;;;;;;;2.20;2.00;;;;;;;;;;4980074;28;20406;-75
2021/04/16 08:11:35;;;;;;;2.60;2.00;;;;;;;;;;4979951;28;20402;-75
2021/04/16 08:14:12;;;;;;;1.77;1.60;;;;;;;;;;4979991;28;20386;-72
2021/04/16 08:16:40;;;;;;;6.90;1.92;;;;;;;;;;4978145;28;20481;-75
2021/04/16 08:19:09;;;;;;;2.85;1.90;;;;;;;;;;4977432;28;20668;-74
2021/04/16 08:21:38;;;;;;;3.03;2.20;;;;;;;;;;4980621;28;20397;-75
2021/04/16 08:24:08;;;;;;;4.70;2.00;;;;;;;;;;4978167;28;20406;-77
2021/04/16 08:26:42;;;;;;;4.45;1.92;;;;;;;;;;4980069;28;20386;-76
2021/04/16 08:29:16;;;;;;;2.33;2.00;;;;;;;;;;4981339;28;20858;-75
2021/04/16 08:31:44;;;;;;;4.20;2.10;;;;;;;;;;4979458;28;20405;-74
2021/04/16 08:34:20;;;;;;;2.20;1.80;;;7.60;95.60;;;;;;4993899;28;20399;-73
2021/04/16 08:36:47;;;;;;;2.00;1.70;;;;;;;;;;4978661;28;20386;-75
2021/04/16 08:39:28;;;;;;;2.10;1.83;;;;;;;;;;4980760;28;20518;-75
2021/04/16 08:41:59;;;;;;;1.47;1.27;;;;;;;;;;4961363;28;20479;-75
2021/04/16 08:44:31;;;;;;;1.50;1.40;;;8.50;92.40;;;;;;4978074;28;20427;-75
2021/04/16 08:46:58;;;;;;;1.67;1.58;;;;;;;;;;4979396;28;20384;-75
2021/04/16 08:49:30;;;;;;;2.65;1.40;;;;;;;;;;4980260;28;20517;-75
2021/04/16 08:52:10;;;;;;;1.80;1.52;;;8.30;92.50;;;;;;4977960;28;21113;-73
2021/04/16 08:54:36;;;;;;;1.60;1.50;;;;;;;;;;4978621;28;20382;-75
2021/04/16 08:57:06;;;;;;;1.63;1.42;;;;;;;;;;4994424;28;20485;-75
2021/04/16 09:00:11;;;;;;;1.77;1.50;;;;;;;;;;4980756;28;20418;-76
2021/04/16 09:02:50;;;;;;;2.10;1.50;;;;;;;;;;4923069;29;20398;-76
2021/04/16 09:05:18;;;;;;;1.40;1.30;;;;;;;;;;4945162;28;20413;-75
2021/04/16 09:07:56;;;;;;;1.60;1.50;;;8.30;87.50;;;;;;4978242;28;20446;-74
2021/04/16 09:10:24;;;;;;;2.13;1.83;;;8.50;81.20;;;;;;4977916;28;21258;-75
2021/04/16 09:12:53;;;;;;;1.35;1.25;;;8.40;83.80;;;;;;4979754;28;20398;-76
2021/04/16 09:15:19;;;;;;;1.48;1.38;;;;;;;;;;4979976;28;20871;-75
2021/04/16 09:17:51;;;;;;;1.20;1.00;;;9.30;79.30;;;;;;4977194;28;20476;-76
2021/04/16 09:20:22;;;;;;;2.40;1.70;;;8.90;87.10;;;;;;4977570;28;20398;-76
2021/04/16 09:22:49;;;;;;;1.50;1.40;;;;;;;;;;4962615;28;20387;-77
2021/04/16 09:25:30;;;;;;;1.90;1.33;;;;;;;;;;4978438;28;21057;-73
2021/04/16 09:28:16;;;;;;;2.83;1.20;;;;;;;;;;4977383;28;20441;-73
2021/04/16 09:30:42;;;;;;;1.17;1.08;;;;;;;;;;4976740;28;20911;-76
2021/04/16 09:33:37;;;;;;;1.80;1.20;;;8.80;84.20;;;;;;4980953;28;20489;-74
2021/04/16 09:36:08;;;;;;;1.50;1.40;;;;;;;;;;4972106;28;20499;-75
2021/04/16 09:38:36;;;;;;;2.30;1.33;;;9.20;91.90;;;;;;4979276;28;20406;-73
2021/04/16 09:41:16;;;;;;;2.78;1.30;;;;;;;;;;4975756;28;21404;-76
2021/04/16 09:43:43;;;;;;;1.50;1.30;;;;;;;;;;4978640;28;20465;-76
2021/04/16 09:46:28;;;;;;;1.25;1.15;;;;;;;;;;4980361;28;20454;-75
2021/04/16 09:48:55;;;;;;;1.70;1.50;;;;;;;;;;4979584;28;20386;-76
2021/04/16 09:51:36;;;;;;;1.45;1.35;;;;;;;;;;4976854;28;20422;-74
2021/04/16 09:54:08;;;;;;;1.20;1.10;;;;;;;;;;4977462;28;20972;-74
2021/04/16 09:56:35;;;;;;;1.58;1.25;;;;;;;;;;4981556;28;20389;-75
2021/04/16 09:59:03;;;;;;;1.38;1.27;;;;;;;;;;4982414;28;20414;-72
2021/04/16 10:01:29;;;;;;;1.38;1.27;;;;;;;;;;4960204;28;20386;-72
2021/04/16 10:04:07;;;;;;;1.95;1.30;;;9.80;79.70;;;;;;4983001;28;20469;-74
2021/04/16 10:06:40;;;;;;;2.00;1.40;;;;;;;;;;4965036;28;20390;-74
2021/04/16 10:09:18;;;;;;;1.40;1.27;;;;;;;;;;4981637;28;20398;-74
2021/04/16 10:11:56;;;;;;;1.67;1.58;;;10.10;80.80;;;;;;4979535;28;20477;-76
2021/04/16 10:14:30;;;;;;;2.00;1.20;;;;;;;;;;4981784;28;20481;-76
2021/04/16 10:17:03;;;;;;;2.63;1.33;;;;;;;;;;4983591;28;20395;-75
2021/04/16 10:19:30;;;;;;;1.25;1.02;;;;;;;;;;4983902;28;20445;-75
2021/04/16 10:21:57;;;;;;;3.90;1.40;;;;;;;;;;4960870;28;21100;-73
2021/04/16 12:39:07;;;;;;;1.40;1.30;;;14.10;72.10;;;;;;4980688;28;20480;-71
2021/04/16 12:41:48;;;;;;;2.45;1.70;;;13.00;63.30;;;;;;4975854;28;20494;-76
2021/04/16 12:44:35;;;;;;;1.95;1.70;;;14.40;61.70;;;;;;4975983;28;20426;-74
2021/04/16 12:47:18;;;;;;;2.83;1.23;;;;;;;;;;4979826;28;20489;-72
2021/04/16 12:49:43;;;;;;;1.60;1.50;;;11.80;64.70;;;;;;4980149;28;20444;-75
2021/04/16 12:52:11;;;;;;;1.60;1.50;;;11.20;64.60;;;;;;4977835;28;20758;-71
2021/04/16 12:54:39;;;;;;;1.85;1.67;;;11.40;73.90;;;;;;4977797;28;20806;-74
2021/04/16 12:57:07;;;;;;;2.15;1.60;;;11.30;76.00;;;;;;4978598;28;20406;-76
2021/04/16 12:59:36;;;;;;;1.70;1.60;;;11.60;73.90;;;;;;4979083;28;20417;-71
2021/04/16 13:02:04;;;;;;;1.60;1.30;;;11.60;76.30;;;;;;4974992;28;20407;-71
2021/04/16 13:04:33;;;;;;;1.90;1.50;;;11.70;74.80;;;;;;4979586;28;20404;-73
2021/04/16 13:06:59;;;;;;;2.00;1.60;;;10.90;78.50;;;;;;4978976;28;20386;-72
2021/04/16 13:09:26;;;;;;;1.70;1.50;;;10.30;76.60;;;;;;4977001;28;20473;-71
2021/04/16 13:11:52;;;;;;;2.38;1.50;;;11.20;89.70;;;;;;4978550;28;20403;-76
2021/04/16 13:14:19;;;;;;;2.30;1.52;;;10.10;80.50;;;;;;4979454;28;20422;-73
2021/04/16 13:16:45;;;;;;;1.60;1.40;;;11.00;78.90;;;;;;4977989;28;20402;-76
2021/04/16 13:19:41;;;;;;;1.55;1.30;;;11.50;81.30;;;;;;4977748;28;20457;-72
2021/04/16 13:22:12;;;;;;;1.80;1.50;;;12.60;81.70;;;;;;4974258;28;20445;-75
2021/04/16 13:24:39;;;;;;;1.70;1.60;;;11.70;77.10;;;;;;4976702;28;20398;-73
2021/04/16 13:27:08;;;;;;;1.80;1.60;;;12.00;79.90;;;;;;4977917;28;20409;-69
2021/04/16 13:29:34;;;;;;;1.60;1.38;;;11.90;79.20;;;;;;4978529;28;20823;-71
2021/04/16 13:32:00;;;;;;;1.50;1.30;;;11.40;77.20;;;;;;4980704;28;20395;-73
2021/04/16 13:34:28;;;;;;;1.50;1.40;;;12.50;77.30;;;;;;4983426;28;20391;-73
2021/04/16 13:36:54;;;;;;;1.40;1.30;;;11.70;76.70;;;;;;4963963;28;20560;-74
2021/04/16 13:39:20;;;;;;;1.55;1.42;;;12.00;75.90;;;;;;4983206;28;20922;-73
2021/04/16 13:41:46;;;;;;;1.42;1.33;;;;;;;;;;4982411;28;20391;-75
2021/04/16 13:44:13;;;;;;;1.75;1.33;;;14.10;72.50;;;;;;4981031;28;20498;-76
2021/04/16 13:46:41;;;;;;;1.90;1.50;;;15.00;73.50;;;;;;4982115;28;20489;-73
2021/04/16 13:49:09;;;;;;;1.67;1.58;;;11.50;69.60;;;;;;4982610;28;20382;-73
2021/04/16 13:51:36;;;;;;;1.55;1.45;;;13.40;71.00;;;;;;4981097;28;20403;-76
2021/04/16 13:54:06;;;;;;;1.75;1.63;;;13.80;76.20;;;;;;4982363;28;20395;-75
2021/04/16 13:56:34;;;;;;;2.50;1.60;;;15.30;70.40;;;;;;4983098;28;20426;-75
2021/04/16 13:58:59;;;;;;;1.50;1.30;;;;;;;;;;4981064;28;20493;-74
2021/04/16 14:01:26;;;;;;;1.80;1.50;;;14.40;60.40;;;;;;4979819;28;20403;-74
2021/04/16 14:04:00;;;;;;;1.67;1.58;;;14.50;65.10;;;;;;4981833;28;20402;-74
2021/04/16 14:06:29;;;;;;;1.73;1.50;;;13.50;65.60;;;;;;4979223;28;21321;-74
2021/04/16 14:09:20;;;;;;;1.85;1.60;;;13.60;67.80;;;;;;4980092;28;20450;-75
2021/04/16 14:11:47;;;;;;;1.50;1.40;;;12.90;69.00;;;;;;4975030;28;20489;-74
2021/04/16 14:14:23;;;;;;;1.42;1.33;;;;;;;;;;4982152;28;20406;-74
2021/04/16 14:16:49;;;;;;;2.45;1.60;;;;;;;;;;4978281;28;20391;-73
2021/04/16 14:19:21;;;;;;;2.97;1.50;;;13.30;61.70;;;;;;4976699;28;20406;-74
2021/04/16 14:21:51;;;;;;;2.10;1.52;;;14.30;67.70;;;;;;4979704;28;20513;-74
2021/04/16 14:24:17;;;;;;;1.80;1.50;;;13.10;68.00;;;;;;4981411;28;20553;-75
2021/04/16 14:26:46;;;;;;;2.20;1.70;;;14.00;67.40;;;;;;4962213;28;20460;-73
2021/04/16 14:29:12;;;;;;;2.28;1.35;;;;;;;;;;4981070;28;20497;-74
2021/04/16 14:31:40;;;;;;;1.20;1.10;;;13.40;72.20;;;;;;4981635;28;20378;-73
2021/04/16 14:34:06;;;;;;;3.50;1.50;;;;;;;;;;4994957;28;20403;-73
2021/04/16 14:36:33;;;;;;;1.90;1.70;;;12.90;71.40;;;;;;4955544;28;20391;-73
2021/04/16 14:39:02;;;;;;;1.60;1.40;;;13.50;70.90;;;;;;4984016;28;20422;-73
2021/04/16 14:41:30;;;;;;;1.93;1.70;;;13.50;71.20;;;;;;4981805;28;20421;-73
2021/04/16 14:43:56;;;;;;;2.10;1.48;;;;;;;;;;4977364;28;20878;-73
2021/04/16 14:46:23;;;;;;;1.65;1.50;;;12.70;68.60;;;;;;4979579;28;20393;-73
2021/04/16 14:48:49;;;;;;;1.95;1.52;;;;;;;;;;4983259;28;20887;-72
2021/04/16 14:51:16;;;;;;;2.58;1.70;;;11.80;74.50;;;;;;4978590;28;20382;-73
2021/04/16 14:53:48;;;;;;;2.50;1.50;;;11.70;74.90;;;;;;4979954;28;20402;-74
2021/04/16 14:56:16;;;;;;;2.30;1.30;;;11.60;75.90;;;;;;4980846;28;20407;-73
2021/04/16 14:58:46;;;;;;;1.70;1.50;;;12.00;76.50;;;;;;4996022;28;20457;-72
2021/04/16 15:01:14;;;;;;;2.00;1.70;;;12.60;75.70;;;;;;4978835;28;20414;-74
2021/04/16 15:03:40;;;;;;;2.47;1.90;;;13.00;75.00;;;;;;4981964;28;20771;-73
2021/04/16 15:06:17;;;;;;;1.50;1.40;;;13.10;76.00;;;;;;4980791;28;21249;-73
2021/04/16 15:08:49;;;;;;;1.60;1.50;;;12.70;86.00;;;;;;4980234;28;20398;-73
2021/04/16 15:11:19;;;;;;;1.45;1.35;;;12.30;75.60;;;;;;4980609;28;20735;-73
2021/04/16 15:13:46;;;;;;;2.72;1.60;;;12.70;74.50;;;;;;4982692;28;20831;-73
2021/04/16 15:16:16;;;;;;;1.67;1.40;;;12.10;72.10;;;;;;4995234;28;20480;-72
2021/04/16 15:18:44;;;;;;;1.65;1.55;;;11.80;74.20;;;;;;4979630;28;21080;-74
2021/04/16 15:21:17;;;;;;;1.77;1.40;;;12.50;79.50;;;;;;4980670;28;20403;-74
2021/04/16 15:23:43;;;;;;;1.60;1.50;;;13.00;75.20;;;;;;4997239;28;20399;-73
2021/04/16 15:26:10;;;;;;;1.50;1.40;;;12.80;75.60;;;;;;4979789;28;20398;-74
2021/04/16 15:28:45;;;;;;;1.80;1.38;;;12.10;75.80;;;;;;4981837;28;20425;-73
2021/04/16 15:31:18;;;;;;;1.70;1.42;;;13.50;74.10;;;;;;4980726;28;20421;-74
2021/04/16 15:47:50;;;;;;;2.00;1.65;;;;;;;;;;4980391;28;20452;-73
2021/04/16 15:50:20;;;;;;;1.55;1.45;;;12.40;72.80;;;;;;4979701;28;20375;-74
2021/04/16 15:52:45;;;;;;;2.50;1.77;;;12.40;72.70;;;;;;4981644;28;20502;-73
2021/04/16 15:55:12;;;;;;;1.60;1.50;;;12.80;72.80;;;;;;4979181;28;20961;-73
2021/04/16 15:57:41;;;;;;;1.60;1.27;;;13.10;74.90;;;;;;4980749;28;20398;-74
2021/04/16 16:00:39;;;;;;;2.45;1.70;;;13.10;71.40;;;;;;4944326;28;20418;-75
2021/04/16 16:03:09;;;;;;;1.70;1.60;;;12.90;66.50;;;;;;4961896;28;20783;-73
2021/04/16 16:05:36;;;;;;;2.58;1.50;;;13.90;65.30;;;;;;4960770;28;21033;-73
2021/04/16 16:08:02;;;;;;;1.60;1.50;;;13.20;69.60;;;;;;4979870;28;20481;-74
2021/04/16 16:10:29;;;;;;;1.50;1.40;;;12.30;71.60;;;;;;4979857;28;20936;-74
2021/04/16 16:13:00;;;;;;;4.00;1.60;;;12.10;75.90;;;;;;4961633;28;20382;-73
2021/04/16 16:15:38;;;;;;;2.30;1.70;;;12.80;74.50;;;;;;4979226;28;20425;-73
2021/04/16 16:18:08;;;;;;;1.63;1.50;;;13.90;66.20;;;;;;4961651;28;20819;-74
2021/04/16 16:20:34;;;;;;;1.70;1.60;;;;;;;;;;4976954;28;20402;-74
2021/04/16 16:23:05;;;;;;;1.60;1.50;;;13.60;67.50;;;;;;4978246;28;20390;-75
2021/04/16 16:25:32;;;;;;;2.20;1.58;;;14.10;68.00;;;;;;4961701;28;20417;-73
2021/04/16 16:28:00;;;;;;;1.80;1.60;;;13.90;63.00;;;;;;4981338;28;20394;-75
2021/04/16 16:30:28;;;;;;;1.85;1.40;;;13.60;65.70;;;;;;4975319;28;20398;-74
2021/04/16 16:32:54;;;;;;;3.20;1.90;;;13.70;68.10;;;;;;4979833;28;20426;-74
2021/04/16 16:35:25;;;;;;;2.30;2.10;;;12.50;68.80;;;;;;4980204;28;20509;-76
2021/04/16 16:37:50;;;;;;;2.75;2.20;;;12.10;71.10;;;;;;4979559;28;21183;-74
2021/04/16 16:40:19;;;;;;;2.00;1.80;;;11.40;74.00;;;;;;4976394;28;20435;-75
2021/04/16 16:42:49;;;;;;;2.05;1.85;;;11.80;75.50;;;;;;4980656;28;20383;-74
2021/04/16 16:45:19;;;;;;;1.90;1.80;;;12.20;75.10;;;;;;4962638;28;20393;-73